Impacts METAR Board
IDs:

KCFD - Bryan/Coulter Fld, TX, US

Updated at: 0900 UTC 13 Aug 2022
Potential Impact None Slight Moderate High
Time 12/21Z 12/22Z 12/23Z 13/00Z 13/01Z 13/02Z 13/03Z 13/04Z 13/05Z 13/06Z 13/07Z 13/08Z 13/09Z
Temp96 94 94 89 88 85 83 81 80 80 80 79 78
Dewpt68 67 70 72 71 71 71 72 73 73 73 74 73
Altim29.94 29.94 29.95 29.95 29.95 29.96 29.98 30.00 30.01 30.00 30.00 30.00 30.00
VIS10 10 10 10 10 10 10 10 10 10 10 10 10
CIG-- -- -- -- -- -- -- 50 -- -- -- 50 --
CoverSCTSCTSCTSCTSCTSCTCLRBKNCLRCLRCLRBKNCLR
FltCatVFRVFRVFRVFRVFRVFRVFRVFRVFRVFRVFRVFRVFR
WX--------------------------
WDir30501101301200000026000
WSpd10 11 12 12 6 0 0 0 0 0 3 0 0
WGst16 15 18 -- -- -- -- -- -- -- -- -- --
Raw hourly METARs
KCFD 122055Z AUTO 03010G16KT 10SM SCT065 36/20 A2994 RMK AO2 T03570198
KCFD 122155Z AUTO 05011G15KT 10SM SCT120 35/20 A2994 RMK AO2 T03450197
KCFD 122255Z AUTO 11012G18KT 10SM SCT060 SCT070 SCT100 34/21 A2995 RMK AO2 T03420211
KCFD 122355Z AUTO 13012KT 10SM SCT110 32/22 A2995 RMK AO2 T03150220 10375 20306
KCFD 130055Z AUTO 12006KT 10SM SCT120 31/22 A2995 RMK AO2 T03100215
KCFD 130155Z AUTO 00000KT 10SM SCT120 29/22 A2996 RMK AO2 T02930215
KCFD 130255Z AUTO 00000KT 10SM CLR 28/22 A2998 RMK AO2 T02810219
KCFD 130355Z AUTO 00000KT 10SM BKN050 27/22 A3000 RMK AO2 T02710222
KCFD 130455Z AUTO 00000KT 10SM CLR 27/23 A3001 RMK AO2 T02680226
KCFD 130555Z AUTO 00000KT 10SM CLR 27/23 A3000 RMK AO2 T02690229 10314 20266 403750252
KCFD 130655Z AUTO 26003KT 10SM CLR 27/23 A3000 RMK AO2 T02650230
KCFD 130755Z AUTO 00000KT 10SM BKN050 BKN060 26/23 A3000 RMK AO2 T02630232
KCFD 130855Z AUTO 00000KT 10SM CLR 26/23 A3000 RMK AO2 T02550230